sensor_id;sensor_type;location;lat;lon;timestamp;temperature;humidity
67249;SHT31;63247;54.300;18.592;2024-01-15T00:02:13;1.70;99.99
67249;SHT31;63247;54.300;18.592;2024-01-15T00:04:39;1.68;99.99
67249;SHT31;63247;54.300;18.592;2024-01-15T00:07:08;1.66;99.99
67249;SHT31;63247;54.300;18.592;2024-01-15T00:09:35;1.60;99.99
67249;SHT31;63247;54.300;18.592;2024-01-15T00:12:01;1.49;99.99
67249;SHT31;63247;54.300;18.592;2024-01-15T00:14:27;1.49;99.99
67249;SHT31;63247;54.300;18.592;2024-01-15T00:16:53;1.40;99.99
67249;SHT31;63247;54.300;18.592;2024-01-15T00:19:20;1.42;99.99
67249;SHT31;63247;54.300;18.592;2024-01-15T00:21:46;1.43;99.99
67249;SHT31;63247;54.300;18.592;2024-01-15T00:24:12;1.28;99.99
67249;SHT31;63247;54.300;18.592;2024-01-15T00:26:37;1.29;99.99
67249;SHT31;63247;54.300;18.592;2024-01-15T00:29:03;1.16;99.99
67249;SHT31;63247;54.300;18.592;2024-01-15T00:31:29;1.12;99.99
67249;SHT31;63247;54.300;18.592;2024-01-15T00:33:55;1.10;99.99
67249;SHT31;63247;54.300;18.592;2024-01-15T00:36:21;1.19;99.99
67249;SHT31;63247;54.300;18.592;2024-01-15T00:38:46;1.19;99.99
67249;SHT31;63247;54.300;18.592;2024-01-15T00:41:13;1.23;99.99
67249;SHT31;63247;54.300;18.592;2024-01-15T00:43:38;1.22;99.99
67249;SHT31;63247;54.300;18.592;2024-01-15T00:46:04;1.26;99.99
67249;SHT31;63247;54.300;18.592;2024-01-15T00:48:30;1.29;99.99
67249;SHT31;63247;54.300;18.592;2024-01-15T00:50:55;1.26;99.99
67249;SHT31;63247;54.300;18.592;2024-01-15T00:53:21;1.33;99.99
67249;SHT31;63247;54.300;18.592;2024-01-15T00:55:47;1.36;99.99
67249;SHT31;63247;54.300;18.592;2024-01-15T00:58:13;1.42;99.99
67249;SHT31;63247;54.300;18.592;2024-01-15T01:00:38;1.42;99.99
67249;SHT31;63247;54.300;18.592;2024-01-15T01:03:04;1.43;99.99
67249;SHT31;63247;54.300;18.592;2024-01-15T01:05:29;1.46;99.99
67249;SHT31;63247;54.300;18.592;2024-01-15T01:07:55;1.43;99.99
67249;SHT31;63247;54.300;18.592;2024-01-15T01:10:20;1.49;99.99
67249;SHT31;63247;54.300;18.592;2024-01-15T01:12:45;1.51;99.99
67249;SHT31;63247;54.300;18.592;2024-01-15T01:15:11;1.50;99.99
67249;SHT31;63247;54.300;18.592;2024-01-15T01:17:36;1.46;99.99
67249;SHT31;63247;54.300;18.592;2024-01-15T01:20:02;1.44;99.99
67249;SHT31;63247;54.300;18.592;2024-01-15T01:22:29;1.43;99.99
67249;SHT31;63247;54.300;18.592;2024-01-15T01:24:55;1.39;99.99
67249;SHT31;63247;54.300;18.592;2024-01-15T01:27:21;1.36;99.99
67249;SHT31;63247;54.300;18.592;2024-01-15T01:29:46;1.30;99.99
67249;SHT31;63247;54.300;18.592;2024-01-15T01:32:12;1.23;99.99
67249;SHT31;63247;54.300;18.592;2024-01-15T01:34:41;1.25;99.99
67249;SHT31;63247;54.300;18.592;2024-01-15T01:37:07;1.23;99.99
67249;SHT31;63247;54.300;18.592;2024-01-15T01:39:33;1.18;99.99
67249;SHT31;63247;54.300;18.592;2024-01-15T01:41:58;1.10;99.99
67249;SHT31;63247;54.300;18.592;2024-01-15T01:44:24;1.19;99.99
67249;SHT31;63247;54.300;18.592;2024-01-15T01:46:49;1.25;99.99
67249;SHT31;63247;54.300;18.592;2024-01-15T01:49:15;1.19;99.99
67249;SHT31;63247;54.300;18.592;2024-01-15T01:51:40;1.23;99.99
67249;SHT31;63247;54.300;18.592;2024-01-15T01:54:07;1.33;99.99
67249;SHT31;63247;54.300;18.592;2024-01-15T01:56:33;1.38;99.99
67249;SHT31;63247;54.300;18.592;2024-01-15T01:58:59;1.32;99.99
67249;SHT31;63247;54.300;18.592;2024-01-15T02:01:25;1.32;99.99
67249;SHT31;63247;54.300;18.592;2024-01-15T02:03:51;1.32;99.99
67249;SHT31;63247;54.300;18.592;2024-01-15T02:06:18;1.38;99.99
67249;SHT31;63247;54.300;18.592;2024-01-15T02:08:43;1.32;99.99
67249;SHT31;63247;54.300;18.592;2024-01-15T02:11:10;1.30;99.99
67249;SHT31;63247;54.300;18.592;2024-01-15T02:13:36;1.32;99.99
67249;SHT31;63247;54.300;18.592;2024-01-15T02:16:01;1.32;99.99
67249;SHT31;63247;54.300;18.592;2024-01-15T02:18:26;1.28;99.99
67249;SHT31;63247;54.300;18.592;2024-01-15T02:20:52;1.26;99.99
67249;SHT31;63247;54.300;18.592;2024-01-15T02:23:17;1.22;99.99
67249;SHT31;63247;54.300;18.592;2024-01-15T02:25:45;1.20;99.99
67249;SHT31;63247;54.300;18.592;2024-01-15T02:28:12;1.13;99.99
67249;SHT31;63247;54.300;18.592;2024-01-15T02:30:38;1.02;99.99
67249;SHT31;63247;54.300;18.592;2024-01-15T02:33:08;1.02;99.99
67249;SHT31;63247;54.300;18.592;2024-01-15T02:35:34;1.02;99.99
67249;SHT31;63247;54.300;18.592;2024-01-15T02:38:02;0.92;99.99
67249;SHT31;63247;54.300;18.592;2024-01-15T02:40:27;0.99;99.99
67249;SHT31;63247;54.300;18.592;2024-01-15T02:42:53;0.91;99.99
67249;SHT31;63247;54.300;18.592;2024-01-15T02:45:19;0.88;99.99
67249;SHT31;63247;54.300;18.592;2024-01-15T02:47:44;0.95;99.99
67249;SHT31;63247;54.300;18.592;2024-01-15T02:50:10;0.98;99.99
67249;SHT31;63247;54.300;18.592;2024-01-15T02:52:35;0.93;99.99
67249;SHT31;63247;54.300;18.592;2024-01-15T02:55:01;0.96;99.99
67249;SHT31;63247;54.300;18.592;2024-01-15T02:57:26;0.96;99.99
67249;SHT31;63247;54.300;18.592;2024-01-15T02:59:51;0.92;99.99
67249;SHT31;63247;54.300;18.592;2024-01-15T03:02:17;0.88;99.99
67249;SHT31;63247;54.300;18.592;2024-01-15T03:04:43;0.91;99.99
67249;SHT31;63247;54.300;18.592;2024-01-15T03:07:09;0.89;99.99
67249;SHT31;63247;54.300;18.592;2024-01-15T03:09:34;0.93;99.99
67249;SHT31;63247;54.300;18.592;2024-01-15T03:12:00;0.95;99.99
67249;SHT31;63247;54.300;18.592;2024-01-15T03:14:25;0.96;99.99
67249;SHT31;63247;54.300;18.592;2024-01-15T03:16:51;0.87;99.99
67249;SHT31;63247;54.300;18.592;2024-01-15T03:19:17;0.89;99.99
67249;SHT31;63247;54.300;18.592;2024-01-15T03:21:42;0.91;99.99
67249;SHT31;63247;54.300;18.592;2024-01-15T03:24:08;0.84;99.99
67249;SHT31;63247;54.300;18.592;2024-01-15T03:26:33;0.82;99.99
67249;SHT31;63247;54.300;18.592;2024-01-15T03:28:58;0.78;99.99
67249;SHT31;63247;54.300;18.592;2024-01-15T03:31:24;0.85;99.99
67249;SHT31;63247;54.300;18.592;2024-01-15T03:33:49;0.82;99.99
67249;SHT31;63247;54.300;18.592;2024-01-15T03:36:14;0.82;99.99
67249;SHT31;63247;54.300;18.592;2024-01-15T03:38:43;0.84;99.99
67249;SHT31;63247;54.300;18.592;2024-01-15T03:41:08;0.84;99.99
67249;SHT31;63247;54.300;18.592;2024-01-15T03:43:34;0.84;99.99
67249;SHT31;63247;54.300;18.592;2024-01-15T03:45:59;0.85;99.99
67249;SHT31;63247;54.300;18.592;2024-01-15T03:48:25;0.85;99.99
67249;SHT31;63247;54.300;18.592;2024-01-15T03:50:50;0.84;99.99
67249;SHT31;63247;54.300;18.592;2024-01-15T03:53:15;0.81;99.99
67249;SHT31;63247;54.300;18.592;2024-01-15T03:55:42;0.82;99.99
67249;SHT31;63247;54.300;18.592;2024-01-15T03:58:07;0.80;99.99
67249;SHT31;63247;54.300;18.592;2024-01-15T04:00:32;0.82;99.99
67249;SHT31;63247;54.300;18.592;2024-01-15T04:02:58;0.84;99.99
67249;SHT31;63247;54.300;18.592;2024-01-15T04:05:23;0.81;99.99
67249;SHT31;63247;54.300;18.592;2024-01-15T04:07:49;0.80;99.99
67249;SHT31;63247;54.300;18.592;2024-01-15T04:10:14;0.82;99.99
67249;SHT31;63247;54.300;18.592;2024-01-15T04:12:40;0.81;99.99
67249;SHT31;63247;54.300;18.592;2024-01-15T04:15:05;0.82;99.99
67249;SHT31;63247;54.300;18.592;2024-01-15T04:17:31;0.81;99.99
67249;SHT31;63247;54.300;18.592;2024-01-15T04:19:56;0.80;99.99
67249;SHT31;63247;54.300;18.592;2024-01-15T04:22:22;0.84;99.99
67249;SHT31;63247;54.300;18.592;2024-01-15T04:24:47;0.80;99.99
67249;SHT31;63247;54.300;18.592;2024-01-15T04:27:13;0.81;99.99
67249;SHT31;63247;54.300;18.592;2024-01-15T04:29:39;0.82;99.99
67249;SHT31;63247;54.300;18.592;2024-01-15T04:32:05;0.82;99.99
67249;SHT31;63247;54.300;18.592;2024-01-15T04:34:30;0.87;99.99
67249;SHT31;63247;54.300;18.592;2024-01-15T04:36:55;0.89;99.99
67249;SHT31;63247;54.300;18.592;2024-01-15T04:39:21;0.87;99.99
67249;SHT31;63247;54.300;18.592;2024-01-15T04:41:47;0.81;99.99
67249;SHT31;63247;54.300;18.592;2024-01-15T04:44:13;0.85;99.99
67249;SHT31;63247;54.300;18.592;2024-01-15T04:46:38;0.82;99.99
67249;SHT31;63247;54.300;18.592;2024-01-15T04:49:03;0.84;99.99
67249;SHT31;63247;54.300;18.592;2024-01-15T04:51:29;0.85;99.99
67249;SHT31;63247;54.300;18.592;2024-01-15T04:53:54;0.85;99.99
67249;SHT31;63247;54.300;18.592;2024-01-15T04:56:19;0.81;99.99
67249;SHT31;63247;54.300;18.592;2024-01-15T04:58:45;0.91;99.99
67249;SHT31;63247;54.300;18.592;2024-01-15T05:01:11;0.87;99.99
67249;SHT31;63247;54.300;18.592;2024-01-15T05:03:36;0.85;99.99
67249;SHT31;63247;54.300;18.592;2024-01-15T05:06:02;0.89;99.99
67249;SHT31;63247;54.300;18.592;2024-01-15T05:08:28;0.91;99.99
67249;SHT31;63247;54.300;18.592;2024-01-15T05:10:53;0.89;99.99
67249;SHT31;63247;54.300;18.592;2024-01-15T05:13:18;0.91;99.99
67249;SHT31;63247;54.300;18.592;2024-01-15T05:15:45;0.98;99.99
67249;SHT31;63247;54.300;18.592;2024-01-15T05:18:10;0.96;99.99
67249;SHT31;63247;54.300;18.592;2024-01-15T05:20:35;1.02;99.99
67249;SHT31;63247;54.300;18.592;2024-01-15T05:23:01;1.02;99.99
67249;SHT31;63247;54.300;18.592;2024-01-15T05:25:26;1.01;99.99
67249;SHT31;63247;54.300;18.592;2024-01-15T05:27:52;1.01;99.99
67249;SHT31;63247;54.300;18.592;2024-01-15T05:30:17;0.96;99.99
67249;SHT31;63247;54.300;18.592;2024-01-15T05:32:42;0.95;99.99
67249;SHT31;63247;54.300;18.592;2024-01-15T05:35:08;0.89;99.99
67249;SHT31;63247;54.300;18.592;2024-01-15T05:37:33;1.06;99.99
67249;SHT31;63247;54.300;18.592;2024-01-15T05:39:59;0.93;99.99
67249;SHT31;63247;54.300;18.592;2024-01-15T05:42:24;0.91;99.99
67249;SHT31;63247;54.300;18.592;2024-01-15T05:44:49;0.93;99.99
67249;SHT31;63247;54.300;18.592;2024-01-15T05:47:15;1.01;99.99
67249;SHT31;63247;54.300;18.592;2024-01-15T05:49:40;0.99;99.99
67249;SHT31;63247;54.300;18.592;2024-01-15T05:52:06;0.91;99.99
67249;SHT31;63247;54.300;18.592;2024-01-15T05:54:31;0.92;99.99
67249;SHT31;63247;54.300;18.592;2024-01-15T05:56:57;0.93;99.99
67249;SHT31;63247;54.300;18.592;2024-01-15T05:59:22;0.89;99.99
67249;SHT31;63247;54.300;18.592;2024-01-15T06:01:48;0.88;99.99
67249;SHT31;63247;54.300;18.592;2024-01-15T06:04:13;0.89;99.99
67249;SHT31;63247;54.300;18.592;2024-01-15T06:06:39;0.92;99.99
67249;SHT31;63247;54.300;18.592;2024-01-15T06:09:04;0.72;99.99
67249;SHT31;63247;54.300;18.592;2024-01-15T06:11:32;0.57;99.99
67249;SHT31;63247;54.300;18.592;2024-01-15T06:13:58;0.62;99.99
67249;SHT31;63247;54.300;18.592;2024-01-15T06:16:24;0.44;99.99
67249;SHT31;63247;54.300;18.592;2024-01-15T06:18:50;0.41;99.99
67249;SHT31;63247;54.300;18.592;2024-01-15T06:21:16;0.41;99.99
67249;SHT31;63247;54.300;18.592;2024-01-15T06:23:41;0.39;99.99
67249;SHT31;63247;54.300;18.592;2024-01-15T06:26:07;0.41;99.99
67249;SHT31;63247;54.300;18.592;2024-01-15T06:28:32;0.40;99.99
67249;SHT31;63247;54.300;18.592;2024-01-15T06:30:58;0.32;99.99
67249;SHT31;63247;54.300;18.592;2024-01-15T06:33:23;0.41;99.99
67249;SHT31;63247;54.300;18.592;2024-01-15T06:35:50;0.43;99.99
67249;SHT31;63247;54.300;18.592;2024-01-15T06:38:15;0.36;99.99
67249;SHT31;63247;54.300;18.592;2024-01-15T06:40:41;0.30;99.99
67249;SHT31;63247;54.300;18.592;2024-01-15T06:43:14;0.29;99.99
67249;SHT31;63247;54.300;18.592;2024-01-15T06:45:40;0.26;99.99
67249;SHT31;63247;54.300;18.592;2024-01-15T06:48:06;0.19;99.99
67249;SHT31;63247;54.300;18.592;2024-01-15T06:50:32;0.12;99.99
67249;SHT31;63247;54.300;18.592;2024-01-15T06:52:58;0.14;99.99
67249;SHT31;63247;54.300;18.592;2024-01-15T06:55:23;0.06;99.99
67249;SHT31;63247;54.300;18.592;2024-01-15T06:57:49;0.10;99.99
67249;SHT31;63247;54.300;18.592;2024-01-15T07:00:16;0.19;99.99
67249;SHT31;63247;54.300;18.592;2024-01-15T07:02:41;0.12;99.99
67249;SHT31;63247;54.300;18.592;2024-01-15T07:05:07;0.16;99.99
67249;SHT31;63247;54.300;18.592;2024-01-15T07:07:32;0.16;99.99
67249;SHT31;63247;54.300;18.592;2024-01-15T07:09:58;0.17;99.99
67249;SHT31;63247;54.300;18.592;2024-01-15T07:12:23;0.07;99.99
67249;SHT31;63247;54.300;18.592;2024-01-15T07:14:49;0.13;99.99
67249;SHT31;63247;54.300;18.592;2024-01-15T07:17:15;0.26;99.99
67249;SHT31;63247;54.300;18.592;2024-01-15T07:19:40;0.27;99.99
67249;SHT31;63247;54.300;18.592;2024-01-15T07:22:06;0.24;99.99
67249;SHT31;63247;54.300;18.592;2024-01-15T07:24:32;0.24;99.99
67249;SHT31;63247;54.300;18.592;2024-01-15T07:26:59;0.17;99.99
67249;SHT31;63247;54.300;18.592;2024-01-15T07:29:25;0.14;99.99
67249;SHT31;63247;54.300;18.592;2024-01-15T07:31:51;0.19;99.99
67249;SHT31;63247;54.300;18.592;2024-01-15T07:34:17;0.19;99.99
67249;SHT31;63247;54.300;18.592;2024-01-15T07:36:44;0.22;99.99
67249;SHT31;63247;54.300;18.592;2024-01-15T07:39:10;0.19;99.99
67249;SHT31;63247;54.300;18.592;2024-01-15T07:41:36;0.24;99.99
67249;SHT31;63247;54.300;18.592;2024-01-15T07:44:02;0.27;99.99
67249;SHT31;63247;54.300;18.592;2024-01-15T07:46:28;0.33;99.99
67249;SHT31;63247;54.300;18.592;2024-01-15T07:48:53;0.40;99.99
67249;SHT31;63247;54.300;18.592;2024-01-15T07:51:24;0.36;99.99
67249;SHT31;63247;54.300;18.592;2024-01-15T07:53:52;0.40;99.99
67249;SHT31;63247;54.300;18.592;2024-01-15T07:56:18;0.56;99.99
67249;SHT31;63247;54.300;18.592;2024-01-15T07:58:43;0.72;99.99
67249;SHT31;63247;54.300;18.592;2024-01-15T08:01:09;0.68;99.99
67249;SHT31;63247;54.300;18.592;2024-01-15T08:03:34;0.74;99.99
67249;SHT31;63247;54.300;18.592;2024-01-15T08:06:00;0.88;99.99
67249;SHT31;63247;54.300;18.592;2024-01-15T08:08:25;1.91;99.99
67249;SHT31;63247;54.300;18.592;2024-01-15T08:10:54;1.51;99.99
67249;SHT31;63247;54.300;18.592;2024-01-15T08:13:20;1.44;99.99
67249;SHT31;63247;54.300;18.592;2024-01-15T08:15:46;2.47;98.98
67249;SHT31;63247;54.300;18.592;2024-01-15T08:18:11;2.79;97.80
67249;SHT31;63247;54.300;18.592;2024-01-15T08:20:37;2.94;97.27
67249;SHT31;63247;54.300;18.592;2024-01-15T08:23:03;3.05;95.92
67249;SHT31;63247;54.300;18.592;2024-01-15T08:25:28;3.59;94.55
67249;SHT31;63247;54.300;18.592;2024-01-15T08:27:55;4.32;92.78
67249;SHT31;63247;54.300;18.592;2024-01-15T08:30:20;5.01;91.11
67249;SHT31;63247;54.300;18.592;2024-01-15T08:32:47;5.04;89.95
67249;SHT31;63247;54.300;18.592;2024-01-15T08:35:12;5.30;88.56
67249;SHT31;63247;54.300;18.592;2024-01-15T08:37:38;5.42;87.97
67249;SHT31;63247;54.300;18.592;2024-01-15T08:40:04;6.03;87.54
67249;SHT31;63247;54.300;18.592;2024-01-15T08:42:29;4.02;90.79
67249;SHT31;63247;54.300;18.592;2024-01-15T08:44:55;2.94;95.06
67249;SHT31;63247;54.300;18.592;2024-01-15T08:47:20;2.42;96.62
67249;SHT31;63247;54.300;18.592;2024-01-15T08:49:46;1.77;99.99
67249;SHT31;63247;54.300;18.592;2024-01-15T08:52:12;1.40;99.99
67249;SHT31;63247;54.300;18.592;2024-01-15T08:54:37;1.22;99.99
67249;SHT31;63247;54.300;18.592;2024-01-15T08:57:03;1.26;99.99
67249;SHT31;63247;54.300;18.592;2024-01-15T08:59:28;1.35;99.99
67249;SHT31;63247;54.300;18.592;2024-01-15T09:01:54;1.30;99.99
67249;SHT31;63247;54.300;18.592;2024-01-15T09:04:22;1.56;99.99
67249;SHT31;63247;54.300;18.592;2024-01-15T09:06:48;1.84;99.99
67249;SHT31;63247;54.300;18.592;2024-01-15T09:09:13;3.15;99.99
67249;SHT31;63247;54.300;18.592;2024-01-15T09:11:42;5.01;94.08
67249;SHT31;63247;54.300;18.592;2024-01-15T09:14:07;6.59;89.04
67249;SHT31;63247;54.300;18.592;2024-01-15T09:16:33;6.16;88.98
67249;SHT31;63247;54.300;18.592;2024-01-15T09:18:59;5.44;89.19
67249;SHT31;63247;54.300;18.592;2024-01-15T09:21:25;4.41;90.84
67249;SHT31;63247;54.300;18.592;2024-01-15T09:23:50;4.01;91.80
67249;SHT31;63247;54.300;18.592;2024-01-15T09:26:17;5.49;88.97
67249;SHT31;63247;54.300;18.592;2024-01-15T09:28:42;5.69;86.48
67249;SHT31;63247;54.300;18.592;2024-01-15T09:31:08;6.38;83.56
67249;SHT31;63247;54.300;18.592;2024-01-15T09:33:33;5.76;84.43
67249;SHT31;63247;54.300;18.592;2024-01-15T09:36:02;5.38;85.49
67249;SHT31;63247;54.300;18.592;2024-01-15T09:38:29;5.47;84.65
67249;SHT31;63247;54.300;18.592;2024-01-15T09:40:57;6.30;83.32
67249;SHT31;63247;54.300;18.592;2024-01-15T09:43:23;7.06;81.15
67249;SHT31;63247;54.300;18.592;2024-01-15T09:45:49;7.19;80.60
67249;SHT31;63247;54.300;18.592;2024-01-15T09:48:15;6.59;79.86
67249;SHT31;63247;54.300;18.592;2024-01-15T09:50:42;7.37;79.82
67249;SHT31;63247;54.300;18.592;2024-01-15T09:53:09;6.79;80.23
67249;SHT31;63247;54.300;18.592;2024-01-15T09:55:36;6.73;80.13
67249;SHT31;63247;54.300;18.592;2024-01-15T09:58:03;6.82;79.62
67249;SHT31;63247;54.300;18.592;2024-01-15T10:00:29;7.37;77.58
67249;SHT31;63247;54.300;18.592;2024-01-15T10:02:56;6.82;79.37
67249;SHT31;63247;54.300;18.592;2024-01-15T10:05:22;7.02;78.96
67249;SHT31;63247;54.300;18.592;2024-01-15T10:07:47;7.28;79.28
67249;SHT31;63247;54.300;18.592;2024-01-15T10:10:15;7.89;77.89
67249;SHT31;63247;54.300;18.592;2024-01-15T10:12:42;7.91;78.01
67249;SHT31;63247;54.300;18.592;2024-01-15T10:15:11;7.33;78.23
67249;SHT31;63247;54.300;18.592;2024-01-15T10:17:40;6.33;81.47
67249;SHT31;63247;54.300;18.592;2024-01-15T10:20:12;7.00;80.34
67249;SHT31;63247;54.300;18.592;2024-01-15T10:22:44;6.55;81.29
67249;SHT31;63247;54.300;18.592;2024-01-15T10:25:12;7.40;80.05
67249;SHT31;63247;54.300;18.592;2024-01-15T10:27:38;6.03;81.87
67249;SHT31;63247;54.300;18.592;2024-01-15T10:30:04;5.60;83.00
67249;SHT31;63247;54.300;18.592;2024-01-15T10:32:31;5.59;83.05
67249;SHT31;63247;54.300;18.592;2024-01-15T10:34:58;5.89;82.08
67249;SHT31;63247;54.300;18.592;2024-01-15T10:37:24;6.49;82.02
67249;SHT31;63247;54.300;18.592;2024-01-15T10:39:50;6.34;81.85
67249;SHT31;63247;54.300;18.592;2024-01-15T10:42:15;5.55;83.74
67249;SHT31;63247;54.300;18.592;2024-01-15T10:44:43;5.35;85.21
67249;SHT31;63247;54.300;18.592;2024-01-15T10:47:08;4.46;86.04
67249;SHT31;63247;54.300;18.592;2024-01-15T10:49:34;3.25;89.67
67249;SHT31;63247;54.300;18.592;2024-01-15T10:52:03;3.39;91.14
67249;SHT31;63247;54.300;18.592;2024-01-15T10:54:29;3.40;92.62
67249;SHT31;63247;54.300;18.592;2024-01-15T10:56:56;3.31;92.09
67249;SHT31;63247;54.300;18.592;2024-01-15T10:59:21;3.90;91.90
67249;SHT31;63247;54.300;18.592;2024-01-15T11:01:50;4.08;90.51
67249;SHT31;63247;54.300;18.592;2024-01-15T11:04:19;3.52;91.37
67249;SHT31;63247;54.300;18.592;2024-01-15T11:06:47;3.49;90.64
67249;SHT31;63247;54.300;18.592;2024-01-15T11:09:13;3.03;92.43
67249;SHT31;63247;54.300;18.592;2024-01-15T11:11:41;2.54;94.83
67249;SHT31;63247;54.300;18.592;2024-01-15T11:14:07;3.24;93.33
67249;SHT31;63247;54.300;18.592;2024-01-15T11:16:53;3.70;91.34
67249;SHT31;63247;54.300;18.592;2024-01-15T11:19:19;3.87;90.98
67249;SHT31;63247;54.300;18.592;2024-01-15T11:21:45;3.21;91.92
67249;SHT31;63247;54.300;18.592;2024-01-15T11:24:33;2.93;91.78
67249;SHT31;63247;54.300;18.592;2024-01-15T11:26:58;3.21;90.35
67249;SHT31;63247;54.300;18.592;2024-01-15T11:34:21;2.87;90.13
67249;SHT31;63247;54.300;18.592;2024-01-15T11:41:56;3.45;89.91
67249;SHT31;63247;54.300;18.592;2024-01-15T11:44:22;2.98;91.17
67249;SHT31;63247;54.300;18.592;2024-01-15T11:52:17;2.09;93.93
67249;SHT31;63247;54.300;18.592;2024-01-15T11:57:51;1.75;95.51
67249;SHT31;63247;54.300;18.592;2024-01-15T12:00:17;1.81;95.36
67249;SHT31;63247;54.300;18.592;2024-01-15T12:02:44;1.61;96.01
67249;SHT31;63247;54.300;18.592;2024-01-15T12:05:13;1.49;96.11
67249;SHT31;63247;54.300;18.592;2024-01-15T12:07:40;1.20;97.24
67249;SHT31;63247;54.300;18.592;2024-01-15T12:10:10;1.23;97.16
67249;SHT31;63247;54.300;18.592;2024-01-15T12:15:32;1.10;97.27
67249;SHT31;63247;54.300;18.592;2024-01-15T12:18:01;0.95;98.03
67249;SHT31;63247;54.300;18.592;2024-01-15T12:20:31;0.92;99.85
67249;SHT31;63247;54.300;18.592;2024-01-15T12:22:57;0.92;99.99
67249;SHT31;63247;54.300;18.592;2024-01-15T12:25:23;0.68;99.99
67249;SHT31;63247;54.300;18.592;2024-01-15T12:27:50;0.72;99.99
67249;SHT31;63247;54.300;18.592;2024-01-15T12:30:16;0.77;99.99
67249;SHT31;63247;54.300;18.592;2024-01-15T12:32:42;0.85;99.99
67249;SHT31;63247;54.300;18.592;2024-01-15T12:35:08;0.92;99.99
67249;SHT31;63247;54.300;18.592;2024-01-15T12:37:40;1.02;99.99
67249;SHT31;63247;54.300;18.592;2024-01-15T12:40:07;1.16;99.99
67249;SHT31;63247;54.300;18.592;2024-01-15T12:42:33;0.99;99.99
67249;SHT31;63247;54.300;18.592;2024-01-15T12:45:00;0.96;99.99
67249;SHT31;63247;54.300;18.592;2024-01-15T12:47:25;0.91;99.99
67249;SHT31;63247;54.300;18.592;2024-01-15T12:49:52;0.74;99.99
67249;SHT31;63247;54.300;18.592;2024-01-15T12:52:20;0.65;99.99
67249;SHT31;63247;54.300;18.592;2024-01-15T12:54:49;0.50;99.99
67249;SHT31;63247;54.300;18.592;2024-01-15T12:57:15;0.34;99.99
67249;SHT31;63247;54.300;18.592;2024-01-15T12:59:41;0.46;99.99
67249;SHT31;63247;54.300;18.592;2024-01-15T13:02:06;0.29;99.99
67249;SHT31;63247;54.300;18.592;2024-01-15T13:04:32;0.41;99.99
67249;SHT31;63247;54.300;18.592;2024-01-15T13:06:57;0.32;99.99
67249;SHT31;63247;54.300;18.592;2024-01-15T13:09:23;0.54;99.99
67249;SHT31;63247;54.300;18.592;2024-01-15T13:11:48;0.53;99.99
67249;SHT31;63247;54.300;18.592;2024-01-15T13:14:14;0.54;99.99
67249;SHT31;63247;54.300;18.592;2024-01-15T13:16:40;0.57;99.99
67249;SHT31;63247;54.300;18.592;2024-01-15T13:19:07;0.54;99.99
67249;SHT31;63247;54.300;18.592;2024-01-15T13:21:33;0.65;99.99
67249;SHT31;63247;54.300;18.592;2024-01-15T13:23:59;0.51;99.99
67249;SHT31;63247;54.300;18.592;2024-01-15T13:26:24;0.54;99.99
67249;SHT31;63247;54.300;18.592;2024-01-15T13:28:50;0.50;99.99
67249;SHT31;63247;54.300;18.592;2024-01-15T13:31:15;0.54;99.99
67249;SHT31;63247;54.300;18.592;2024-01-15T13:33:41;0.51;99.99
67249;SHT31;63247;54.300;18.592;2024-01-15T13:36:06;0.56;99.99
67249;SHT31;63247;54.300;18.592;2024-01-15T13:38:38;0.50;99.99
67249;SHT31;63247;54.300;18.592;2024-01-15T13:41:07;0.47;99.99
67249;SHT31;63247;54.300;18.592;2024-01-15T13:43:33;0.41;99.99
67249;SHT31;63247;54.300;18.592;2024-01-15T13:45:59;0.41;99.99
67249;SHT31;63247;54.300;18.592;2024-01-15T13:48:24;0.49;99.99
67249;SHT31;63247;54.300;18.592;2024-01-15T13:50:50;0.54;99.99
67249;SHT31;63247;54.300;18.592;2024-01-15T13:53:16;0.54;99.99
67249;SHT31;63247;54.300;18.592;2024-01-15T13:55:41;0.41;99.99
67249;SHT31;63247;54.300;18.592;2024-01-15T13:58:07;0.43;99.99
67249;SHT31;63247;54.300;18.592;2024-01-15T14:00:32;0.39;99.99
67249;SHT31;63247;54.300;18.592;2024-01-15T14:02:58;0.51;99.99
67249;SHT31;63247;54.300;18.592;2024-01-15T14:05:24;0.41;99.99
67249;SHT31;63247;54.300;18.592;2024-01-15T14:07:49;0.39;99.99
67249;SHT31;63247;54.300;18.592;2024-01-15T14:10:15;0.53;99.99
67249;SHT31;63247;54.300;18.592;2024-01-15T14:12:40;0.50;99.99
67249;SHT31;63247;54.300;18.592;2024-01-15T14:15:06;0.51;99.99
67249;SHT31;63247;54.300;18.592;2024-01-15T14:17:32;0.60;99.99
67249;SHT31;63247;54.300;18.592;2024-01-15T14:19:57;0.57;99.73
67249;SHT31;63247;54.300;18.592;2024-01-15T14:22:23;0.54;99.99
67249;SHT31;63247;54.300;18.592;2024-01-15T14:24:48;0.53;99.99
67249;SHT31;63247;54.300;18.592;2024-01-15T14:27:14;0.64;99.99
67249;SHT31;63247;54.300;18.592;2024-01-15T14:29:40;0.58;99.76
67249;SHT31;63247;54.300;18.592;2024-01-15T14:32:05;0.51;99.99
67249;SHT31;63247;54.300;18.592;2024-01-15T14:34:30;0.44;99.99
67249;SHT31;63247;54.300;18.592;2024-01-15T14:36:56;0.33;99.99
67249;SHT31;63247;54.300;18.592;2024-01-15T14:39:22;0.19;99.99
67249;SHT31;63247;54.300;18.592;2024-01-15T14:41:48;0.17;99.99
67249;SHT31;63247;54.300;18.592;2024-01-15T14:44:13;0.10;99.99
67249;SHT31;63247;54.300;18.592;2024-01-15T14:46:39;0.14;99.99
67249;SHT31;63247;54.300;18.592;2024-01-15T14:49:05;0.05;99.99
67249;SHT31;63247;54.300;18.592;2024-01-15T14:51:30;-0.04;99.99
67249;SHT31;63247;54.300;18.592;2024-01-15T14:53:55;-0.08;99.99
67249;SHT31;63247;54.300;18.592;2024-01-15T14:56:21;-0.18;99.99
67249;SHT31;63247;54.300;18.592;2024-01-15T14:58:46;-0.30;99.99
67249;SHT31;63247;54.300;18.592;2024-01-15T15:01:12;-0.28;99.99
67249;SHT31;63247;54.300;18.592;2024-01-15T15:03:38;-0.29;99.99
67249;SHT31;63247;54.300;18.592;2024-01-15T15:06:04;-0.29;99.99
67249;SHT31;63247;54.300;18.592;2024-01-15T15:08:29;-0.25;99.99
67249;SHT31;63247;54.300;18.592;2024-01-15T15:10:55;-0.21;99.99
67249;SHT31;63247;54.300;18.592;2024-01-15T15:13:22;-0.33;99.99
67249;SHT31;63247;54.300;18.592;2024-01-15T15:15:48;-0.39;99.99
67249;SHT31;63247;54.300;18.592;2024-01-15T15:18:13;-0.25;99.99
67249;SHT31;63247;54.300;18.592;2024-01-15T15:20:39;-0.28;99.99
67249;SHT31;63247;54.300;18.592;2024-01-15T15:23:04;-0.32;99.99
67249;SHT31;63247;54.300;18.592;2024-01-15T15:25:34;-0.35;99.99
67249;SHT31;63247;54.300;18.592;2024-01-15T15:28:00;-0.32;99.99
67249;SHT31;63247;54.300;18.592;2024-01-15T15:30:25;-0.29;99.99
67249;SHT31;63247;54.300;18.592;2024-01-15T15:32:51;-0.29;99.99
67249;SHT31;63247;54.300;18.592;2024-01-15T15:35:16;-0.18;99.99
67249;SHT31;63247;54.300;18.592;2024-01-15T15:37:42;-0.09;99.99
67249;SHT31;63247;54.300;18.592;2024-01-15T15:40:08;-0.12;99.99
67249;SHT31;63247;54.300;18.592;2024-01-15T15:42:36;-0.08;99.99
67249;SHT31;63247;54.300;18.592;2024-01-15T15:45:02;-0.04;99.99